Time;durP1;ratioP1;P1;durP2;ratioP2;P2;SDS_P1;SDS_P2;PMS_P1;PMS_P2;Temp;Humidity;BMP_temperature;BMP_pressure;BME280_temperature;BME280_humidity;BME280_pressure;Samples;Min_cycle;Max_cycle;Signal;HPM_P1;HPM_P2
2023/07/28 00:01:56;;;;;;;30.58;23.63;;;18.10;99.90;;;;;;4963537;28;20043;-74
2023/07/28 00:04:23;;;;;;;32.47;25.02;;;18.10;99.90;;;;;;4967855;28;20466;-74
2023/07/28 00:06:49;;;;;;;35.08;25.45;;;18.10;99.90;;;;;;4962806;28;20051;-74
2023/07/28 00:09:15;;;;;;;33.47;25.50;;;18.10;99.90;;;;;;4955023;28;20509;-74
2023/07/28 00:11:40;;;;;;;35.47;25.67;;;18.10;99.90;;;;;;4967553;28;20398;-74
2023/07/28 00:14:06;;;;;;;33.72;26.52;;;18.10;99.90;;;;;;4981778;28;20074;-74
2023/07/28 00:16:32;;;;;;;31.13;24.27;;;18.10;99.90;;;;;;4975465;28;20059;-74
2023/07/28 00:18:57;;;;;;;30.33;24.27;;;18.10;99.90;;;;;;4967030;28;20047;-74
2023/07/28 00:21:23;;;;;;;29.00;24.45;;;18.10;99.90;;;;;;4962435;28;20034;-74
2023/07/28 00:23:49;;;;;;;28.67;23.83;;;18.10;99.90;;;;;;4963707;28;20078;-74
2023/07/28 00:26:14;;;;;;;31.33;23.83;;;18.10;99.90;;;;;;4966176;28;20043;-74
2023/07/28 00:28:40;;;;;;;26.52;21.40;;;18.10;99.90;;;;;;4964852;28;20039;-74
2023/07/28 00:31:06;;;;;;;29.02;21.98;;;18.10;99.90;;;;;;4961398;28;20074;-74
2023/07/28 00:33:31;;;;;;;27.60;22.48;;;18.10;99.90;;;;;;4964320;28;20050;-74
2023/07/28 00:35:57;;;;;;;34.67;22.10;;;18.10;99.90;;;;;;4968774;28;20042;-74
2023/07/28 00:38:23;;;;;;;26.00;22.30;;;18.10;99.90;;;;;;4963068;28;20086;-74
2023/07/28 00:40:49;;;;;;;27.30;21.02;;;18.10;99.90;;;;;;4953926;28;20050;-74
2023/07/28 00:43:14;;;;;;;26.25;21.23;;;18.10;99.90;;;;;;4966142;28;20335;-74
2023/07/28 00:45:40;;;;;;;28.25;22.08;;;18.10;99.90;;;;;;4961246;28;20046;-74
2023/07/28 00:48:11;;;;;;;28.58;22.38;;;18.10;99.90;;;;;;4966642;28;20039;-74
2023/07/28 00:50:38;;;;;;;30.08;22.17;;;18.10;99.90;;;;;;4968133;28;20101;-74
2023/07/28 00:53:04;;;;;;;28.58;22.55;;;18.10;99.90;;;;;;4944986;29;20047;-74
2023/07/28 00:55:30;;;;;;;31.05;21.88;;;18.10;99.90;;;;;;4960376;28;20121;-74
2023/07/28 00:57:57;;;;;;;28.48;22.50;;;18.10;99.90;;;;;;4971385;28;20081;-74
2023/07/28 01:00:22;;;;;;;29.90;22.90;;;18.10;99.90;;;;;;4980348;28;20103;-74
2023/07/28 01:02:48;;;;;;;29.50;22.20;;;18.10;99.90;;;;;;4963145;28;20891;-74
2023/07/28 01:05:14;;;;;;;33.50;22.98;;;18.10;99.90;;;;;;4988155;28;20069;-74
2023/07/28 01:07:55;;;;;;;29.05;23.08;;;18.10;99.90;;;;;;4985496;28;20085;-73
2023/07/28 01:10:34;;;;;;;30.25;22.20;;;18.10;99.90;;;;;;4963201;28;20585;-73
2023/07/28 01:13:00;;;;;;;31.63;23.35;;;18.10;99.90;;;;;;4960383;28;20058;-73
2023/07/28 01:15:25;;;;;;;30.52;21.52;;;18.10;99.90;;;;;;4966789;28;20093;-73
2023/07/28 01:17:52;;;;;;;29.67;22.23;;;18.10;99.90;;;;;;4961751;28;20042;-74
2023/07/28 01:20:18;;;;;;;32.08;22.92;;;18.10;99.90;;;;;;4982555;28;20052;-74
2023/07/28 01:22:56;;;;;;;32.67;23.55;;;18.10;99.90;;;;;;4976620;28;20043;-73
2023/07/28 01:25:41;;;;;;;31.00;22.58;;;18.10;99.90;;;;;;4964620;28;20092;-73
2023/07/28 01:28:08;;;;;;;29.05;22.42;;;18.10;99.90;;;;;;4961368;28;20065;-73
2023/07/28 01:30:34;;;;;;;30.23;23.10;;;18.10;99.90;;;;;;4981414;28;20053;-74
2023/07/28 01:32:59;;;;;;;31.30;22.90;;;18.10;99.90;;;;;;4976846;28;20054;-73
2023/07/28 01:35:26;;;;;;;33.05;22.67;;;18.10;99.90;;;;;;4984727;28;20042;-74
2023/07/28 01:37:52;;;;;;;33.10;23.23;;;18.10;99.90;;;;;;4983433;28;20126;-74
2023/07/28 01:40:20;;;;;;;32.72;23.23;;;18.10;99.90;;;;;;4961659;28;20633;-74
2023/07/28 01:42:46;;;;;;;32.17;23.85;;;18.10;99.90;;;;;;4981305;28;20058;-73
2023/07/28 01:45:12;;;;;;;36.67;23.90;;;18.10;99.90;;;;;;4983244;28;20053;-74
2023/07/28 01:47:38;;;;;;;35.78;24.20;;;18.10;99.90;;;;;;4972559;28;20042;-73
2023/07/28 01:50:04;;;;;;;34.08;23.38;;;18.10;99.90;;;;;;4969209;28;20504;-74
2023/07/28 01:52:30;;;;;;;34.92;23.30;;;18.10;99.90;;;;;;4976747;28;20073;-74
2023/07/28 01:54:55;;;;;;;31.85;23.05;;;18.10;99.90;;;;;;4984476;28;20565;-74
2023/07/28 01:57:22;;;;;;;39.17;24.73;;;18.10;99.90;;;;;;4987304;28;20096;-74
2023/07/28 01:59:47;;;;;;;30.00;23.00;;;18.10;99.90;;;;;;4982795;28;20054;-74
2023/07/28 02:02:13;;;;;;;34.25;23.17;;;18.10;99.90;;;;;;4978166;28;20039;-73
2023/07/28 02:04:38;;;;;;;32.53;23.38;;;18.10;99.90;;;;;;4977977;28;20138;-73
2023/07/28 02:07:04;;;;;;;34.05;23.05;;;18.10;99.90;;;;;;4961004;28;20092;-74
2023/07/28 02:09:30;;;;;;;36.88;24.02;;;18.10;99.90;;;;;;4985681;28;20130;-74
2023/07/28 02:11:56;;;;;;;33.33;23.17;;;18.10;99.90;;;;;;4970688;28;20077;-73
2023/07/28 02:14:21;;;;;;;31.50;22.70;;;18.10;99.90;;;;;;4964765;28;20046;-74
2023/07/28 02:16:47;;;;;;;32.78;23.40;;;18.10;99.90;;;;;;4968901;28;20049;-74
2023/07/28 02:19:13;;;;;;;33.08;22.95;;;18.10;99.90;;;;;;4974729;28;20105;-74
2023/07/28 02:21:38;;;;;;;37.25;22.75;;;18.10;99.90;;;;;;4980477;28;20045;-74
2023/07/28 02:24:04;;;;;;;34.70;22.95;;;18.10;99.90;;;;;;4963983;28;20046;-74
2023/07/28 02:26:30;;;;;;;31.48;22.58;;;18.10;99.90;;;;;;4980164;28;20077;-74
2023/07/28 02:28:56;;;;;;;34.10;23.77;;;18.10;99.90;;;;;;4963330;28;20486;-74
2023/07/28 02:31:21;;;;;;;32.05;23.17;;;18.00;99.90;;;;;;4987463;28;20101;-74
2023/07/28 02:33:47;;;;;;;35.40;22.83;;;18.10;99.90;;;;;;4966528;28;20417;-74
2023/07/28 02:36:13;;;;;;;31.80;21.85;;;18.10;99.90;;;;;;4962500;28;20046;-74
2023/07/28 02:38:38;;;;;;;31.35;22.63;;;18.10;99.90;;;;;;4988605;28;20038;-73
2023/07/28 02:41:04;;;;;;;32.25;21.25;;;18.10;99.90;;;;;;4984104;28;20807;-74
2023/07/28 02:43:30;;;;;;;28.42;20.85;;;18.10;99.90;;;;;;4969313;28;20104;-73
2023/07/28 02:45:57;;;;;;;28.33;20.77;;;18.10;99.90;;;;;;4982325;28;20047;-73
2023/07/28 02:48:23;;;;;;;28.50;21.08;;;18.10;99.90;;;;;;4982330;28;20105;-73
2023/07/28 02:50:50;;;;;;;29.50;20.58;;;18.10;99.90;;;;;;4979560;28;20047;-74
2023/07/28 02:53:16;;;;;;;;;;;18.10;99.90;;;;;;4985695;28;20158;-73
2023/07/28 02:55:46;;;;;;;26.13;18.58;;;18.10;99.90;;;;;;4978066;28;20444;-74
2023/07/28 02:58:13;;;;;;;26.20;19.80;;;18.10;99.90;;;;;;4982551;28;20073;-74
2023/07/28 03:00:39;;;;;;;28.03;20.33;;;18.10;99.90;;;;;;4977436;28;20116;-74
2023/07/28 03:03:06;;;;;;;32.65;21.02;;;18.10;99.90;;;;;;4965888;28;20143;-74
2023/07/28 03:05:32;;;;;;;26.40;19.23;;;18.10;99.90;;;;;;4960535;28;20143;-74
2023/07/28 03:07:58;;;;;;;25.80;20.25;;;18.10;99.90;;;;;;4982761;28;20293;-74
2023/07/28 03:10:24;;;;;;;29.17;20.15;;;18.10;99.90;;;;;;4989208;28;20419;-74
2023/07/28 03:12:49;;;;;;;29.05;20.33;;;18.10;99.90;;;;;;4985022;28;20047;-73
2023/07/28 03:15:15;;;;;;;29.38;20.23;;;18.10;99.90;;;;;;4981583;28;20042;-73
2023/07/28 03:17:41;;;;;;;25.98;19.13;;;18.10;99.90;;;;;;4967329;28;20046;-74
2023/07/28 03:20:07;;;;;;;28.73;20.40;;;18.10;99.90;;;;;;4973215;28;20042;-74
2023/07/28 03:22:33;;;;;;;28.50;20.40;;;18.10;99.90;;;;;;4985549;28;20112;-73
2023/07/28 03:24:58;;;;;;;28.60;20.02;;;18.10;99.90;;;;;;4978064;28;20494;-74
2023/07/28 03:27:24;;;;;;;29.52;19.88;;;18.10;99.90;;;;;;4979441;28;20050;-73
2023/07/28 03:29:50;;;;;;;29.23;19.75;;;18.10;99.90;;;;;;4984608;28;20150;-74
2023/07/28 03:32:16;;;;;;;27.98;19.88;;;18.10;99.90;;;;;;4957056;28;20046;-74
2023/07/28 03:34:42;;;;;;;23.70;18.77;;;18.10;99.90;;;;;;4966468;28;20481;-74
2023/07/28 03:37:08;;;;;;;29.85;19.20;;;18.10;99.90;;;;;;4970828;28;20078;-73
2023/07/28 03:39:34;;;;;;;25.38;20.15;;;18.10;99.90;;;;;;4974806;28;20153;-74
2023/07/28 03:42:00;;;;;;;26.20;19.17;;;18.10;99.90;;;;;;4983217;28;20078;-74
2023/07/28 03:44:26;;;;;;;29.55;20.58;;;18.10;99.90;;;;;;4969826;28;20133;-74
2023/07/28 03:46:51;;;;;;;27.27;20.17;;;18.10;99.90;;;;;;4985626;28;20062;-74
2023/07/28 03:49:17;;;;;;;25.75;20.50;;;18.10;99.90;;;;;;4986928;28;20042;-74
2023/07/28 03:51:43;;;;;;;25.50;19.85;;;18.10;99.90;;;;;;4987797;28;20042;-74
2023/07/28 03:54:08;;;;;;;27.77;19.48;;;18.10;99.90;;;;;;4975872;28;20046;-74
2023/07/28 03:56:34;;;;;;;27.42;20.65;;;18.10;99.90;;;;;;4978589;28;20042;-74
2023/07/28 03:59:00;;;;;;;31.00;20.40;;;18.10;99.90;;;;;;4983143;28;20105;-74
2023/07/28 04:01:26;;;;;;;25.63;20.10;;;18.10;99.90;;;;;;4978748;28;20047;-74
2023/07/28 04:03:51;;;;;;;26.38;20.20;;;18.10;99.90;;;;;;4978700;28;20047;-74
2023/07/28 04:06:17;;;;;;;25.80;19.55;;;18.10;99.90;;;;;;4978161;28;20045;-74
2023/07/28 04:08:43;;;;;;;28.65;21.80;;;18.10;99.90;;;;;;4978552;28;20399;-74
2023/07/28 04:11:08;;;;;;;27.08;20.50;;;18.10;99.90;;;;;;4965714;28;20133;-74
2023/07/28 04:13:34;;;;;;;30.33;21.30;;;18.10;99.90;;;;;;4962669;28;20051;-74
2023/07/28 04:16:00;;;;;;;25.23;20.85;;;18.10;99.90;;;;;;4965426;28;20080;-74
2023/07/28 04:18:26;;;;;;;29.13;21.30;;;18.10;99.90;;;;;;4969337;28;20050;-74
2023/07/28 04:20:52;;;;;;;30.15;21.25;;;18.10;99.90;;;;;;4985564;28;20038;-74
2023/07/28 04:23:17;;;;;;;29.38;20.45;;;18.10;99.90;;;;;;4961857;28;20074;-74
2023/07/28 04:25:43;;;;;;;30.65;21.23;;;18.10;99.90;;;;;;4968061;28;20058;-74
2023/07/28 04:28:09;;;;;;;27.20;21.00;;;18.10;99.90;;;;;;4972637;28;20457;-74
2023/07/28 04:30:34;;;;;;;26.85;20.45;;;18.10;99.90;;;;;;4984151;28;20045;-74
2023/07/28 04:33:00;;;;;;;29.45;21.40;;;18.10;99.90;;;;;;4971983;28;20552;-74
2023/07/28 04:35:26;;;;;;;26.90;20.20;;;18.20;99.90;;;;;;4961274;28;20054;-74
2023/07/28 04:37:52;;;;;;;27.05;20.35;;;18.20;99.90;;;;;;4981122;28;20048;-74
2023/07/28 04:40:18;;;;;;;25.88;19.80;;;18.20;99.90;;;;;;4970330;28;20120;-74
2023/07/28 04:42:45;;;;;;;26.25;21.15;;;18.20;99.90;;;;;;4984307;28;20042;-74
2023/07/28 04:45:10;;;;;;;29.42;20.67;;;18.20;99.90;;;;;;4963170;28;20081;-74
2023/07/28 04:47:36;;;;;;;30.20;21.38;;;18.20;99.90;;;;;;4984326;28;20077;-74
2023/07/28 04:50:02;;;;;;;26.08;20.80;;;18.20;99.90;;;;;;4988135;28;20444;-74
2023/07/28 04:52:27;;;;;;;30.98;20.73;;;18.20;99.90;;;;;;4969112;28;20046;-74
2023/07/28 04:54:53;;;;;;;28.55;21.83;;;18.30;99.90;;;;;;4983427;28;20047;-74
2023/07/28 04:57:19;;;;;;;27.85;21.33;;;18.30;99.90;;;;;;4979363;28;20741;-73
2023/07/28 04:59:45;;;;;;;27.75;21.60;;;18.20;99.90;;;;;;4988037;28;20120;-74
2023/07/28 05:02:10;;;;;;;28.35;21.05;;;18.20;99.90;;;;;;4982050;28;20446;-74
2023/07/28 05:04:36;;;;;;;25.60;20.73;;;18.30;99.90;;;;;;4959544;28;20042;-74
2023/07/28 05:07:03;;;;;;;29.73;21.25;;;18.20;99.90;;;;;;4981664;28;20043;-74
2023/07/28 05:09:29;;;;;;;27.65;21.02;;;18.20;99.90;;;;;;4966619;28;20039;-73
2023/07/28 05:11:55;;;;;;;24.08;20.88;;;18.30;99.90;;;;;;4961829;28;20058;-75
2023/07/28 05:14:21;;;;;;;28.92;21.83;;;18.30;99.90;;;;;;4967469;28;20042;-74
2023/07/28 05:16:49;;;;;;;29.05;21.45;;;18.20;99.90;;;;;;4966736;28;20682;-75
2023/07/28 05:19:15;;;;;;;28.67;21.08;;;18.20;99.90;;;;;;4977067;28;20529;-75
2023/07/28 05:21:40;;;;;;;29.05;21.77;;;18.30;99.90;;;;;;4972579;28;20053;-74
2023/07/28 05:24:06;;;;;;;26.58;22.00;;;18.30;99.90;;;;;;4983712;28;20137;-75
2023/07/28 05:26:32;;;;;;;26.02;19.98;;;18.20;99.90;;;;;;4983654;28;20181;-74
2023/07/28 05:28:57;;;;;;;25.60;21.33;;;18.30;99.90;;;;;;4968039;28;20107;-75
2023/07/28 05:31:23;;;;;;;28.25;21.42;;;18.30;99.90;;;;;;4971904;28;20054;-75
2023/07/28 05:33:49;;;;;;;30.60;20.92;;;18.30;99.90;;;;;;4966552;28;20133;-75
2023/07/28 05:36:15;;;;;;;27.50;21.13;;;18.30;99.90;;;;;;4989287;28;20069;-75
2023/07/28 05:38:40;;;;;;;26.63;19.95;;;18.30;99.90;;;;;;4991421;28;20125;-75
2023/07/28 05:41:07;;;;;;;28.80;20.90;;;18.30;99.90;;;;;;4960471;28;20153;-74
2023/07/28 05:43:33;;;;;;;29.37;20.70;;;18.30;99.90;;;;;;4969212;28;20460;-74
2023/07/28 05:46:00;;;;;;;29.05;19.55;;;18.30;99.90;;;;;;4984114;28;20078;-74
2023/07/28 05:48:26;;;;;;;29.70;21.73;;;18.30;99.90;;;;;;4981311;28;21018;-75
2023/07/28 05:50:53;;;;;;;29.65;20.70;;;18.30;99.90;;;;;;4985304;28;20038;-74
2023/07/28 05:53:22;;;;;;;28.20;21.45;;;18.30;99.90;;;;;;4968573;28;20078;-75
2023/07/28 05:55:48;;;;;;;29.83;21.55;;;18.30;99.90;;;;;;4982318;28;20082;-75
2023/07/28 05:58:15;;;;;;;29.92;21.23;;;18.30;99.90;;;;;;4974514;28;20089;-75
2023/07/28 06:00:40;;;;;;;28.15;20.42;;;18.30;99.90;;;;;;4956087;28;20141;-75
2023/07/28 06:03:09;;;;;;;27.48;22.00;;;18.30;99.90;;;;;;4985397;28;20568;-75
2023/07/28 06:05:35;;;;;;;32.17;21.27;;;18.40;99.90;;;;;;4965203;28;20121;-75
2023/07/28 06:08:00;;;;;;;27.15;20.67;;;18.30;99.90;;;;;;4983628;28;20465;-75
2023/07/28 06:10:26;;;;;;;29.42;21.60;;;18.40;99.90;;;;;;4977825;28;20438;-74
2023/07/28 06:12:52;;;;;;;31.40;20.60;;;18.40;99.90;;;;;;4974442;28;20101;-75
2023/07/28 06:15:17;;;;;;;29.35;19.98;;;18.40;99.90;;;;;;4980531;28;20042;-75
2023/07/28 06:17:43;;;;;;;30.13;20.88;;;18.40;99.90;;;;;;4964029;28;20121;-74
2023/07/28 06:20:09;;;;;;;29.98;20.80;;;18.40;99.90;;;;;;4958754;28;20053;-74
2023/07/28 06:22:35;;;;;;;27.67;20.35;;;18.40;99.90;;;;;;4968274;28;20064;-75
2023/07/28 06:25:02;;;;;;;29.08;21.02;;;18.50;99.90;;;;;;4959339;28;20449;-74
2023/07/28 06:27:28;;;;;;;24.85;19.10;;;18.50;99.90;;;;;;4981561;28;20061;-74
2023/07/28 06:29:53;;;;;;;28.05;19.85;;;18.50;99.90;;;;;;4981557;28;20038;-74
2023/07/28 06:32:20;;;;;;;25.35;20.08;;;18.50;99.90;;;;;;4960659;28;20057;-74
2023/07/28 06:34:46;;;;;;;31.25;19.35;;;18.50;99.90;;;;;;4979455;28;20145;-75
2023/07/28 06:37:11;;;;;;;29.80;20.15;;;18.50;99.90;;;;;;4971018;28;20045;-75
2023/07/28 06:39:37;;;;;;;27.27;19.20;;;18.60;99.90;;;;;;4969815;28;20440;-74
2023/07/28 06:42:03;;;;;;;29.85;19.50;;;18.60;99.90;;;;;;4979370;28;20046;-75
2023/07/28 06:44:28;;;;;;;26.15;19.27;;;18.60;99.90;;;;;;4965160;28;20041;-75
2023/07/28 06:46:54;;;;;;;27.88;19.48;;;18.70;99.90;;;;;;4962846;28;20401;-75
2023/07/28 06:49:20;;;;;;;24.00;18.75;;;18.70;99.90;;;;;;4975980;28;20089;-75
2023/07/28 06:51:45;;;;;;;24.98;18.65;;;18.80;99.90;;;;;;4963414;28;20125;-73
2023/07/28 06:54:12;;;;;;;23.00;18.15;;;18.80;99.90;;;;;;4978567;28;20153;-75
2023/07/28 06:56:39;;;;;;;23.70;16.95;;;18.90;99.90;;;;;;4978792;28;20047;-75
2023/07/28 06:59:06;;;;;;;21.55;17.42;;;18.90;99.90;;;;;;4978212;28;20059;-75
2023/07/28 07:01:32;;;;;;;21.00;16.67;;;19.00;99.90;;;;;;4975228;28;20425;-75
2023/07/28 07:03:58;;;;;;;24.05;17.38;;;19.10;99.90;;;;;;4987800;28;20486;-73
2023/07/28 07:06:23;;;;;;;19.80;16.77;;;19.20;99.90;;;;;;4975528;28;20047;-74
2023/07/28 07:08:49;;;;;;;22.80;16.95;;;19.30;99.90;;;;;;4969444;28;20046;-74
2023/07/28 07:11:15;;;;;;;18.77;15.48;;;19.50;99.90;;;;;;4976991;28;20054;-74
2023/07/28 07:13:40;;;;;;;19.65;15.00;;;19.50;99.90;;;;;;4966321;28;20089;-74
2023/07/28 07:16:16;;;;;;;19.48;14.90;;;19.70;99.90;;;;;;4964731;28;20038;-74
2023/07/28 07:18:43;;;;;;;17.50;14.68;;;19.70;99.90;;;;;;4977731;28;20065;-74
2023/07/28 07:21:09;;;;;;;17.20;14.82;;;19.70;99.90;;;;;;4962569;28;20371;-74
2023/07/28 07:23:36;;;;;;;19.52;15.05;;;19.70;99.90;;;;;;4971648;28;20050;-74
2023/07/28 07:26:02;;;;;;;23.40;15.63;;;19.70;99.90;;;;;;4975229;28;20907;-74
2023/07/28 07:28:28;;;;;;;19.45;14.82;;;19.70;99.90;;;;;;4956699;28;20306;-74
2023/07/28 07:30:57;;;;;;;22.97;14.37;;;19.70;99.90;;;;;;4978813;28;20406;-74
2023/07/28 07:33:23;;;;;;;21.40;14.80;;;19.70;99.90;;;;;;4982431;28;20086;-76
2023/07/28 07:35:49;;;;;;;17.02;13.68;;;19.70;99.90;;;;;;4976240;28;20043;-73
2023/07/28 07:38:14;;;;;;;17.98;13.90;;;19.70;99.90;;;;;;4977032;28;20049;-75
2023/07/28 07:40:40;;;;;;;18.50;13.07;;;19.70;99.90;;;;;;4979767;28;20050;-75
2023/07/28 07:43:06;;;;;;;18.17;14.13;;;19.60;99.90;;;;;;4974870;28;20046;-76
2023/07/28 07:45:32;;;;;;;17.88;14.00;;;19.60;99.90;;;;;;4987473;28;20035;-75
2023/07/28 07:47:59;;;;;;;19.70;14.23;;;19.60;99.90;;;;;;4982165;28;20047;-76
2023/07/28 07:50:25;;;;;;;20.45;14.10;;;19.50;99.90;;;;;;4975316;28;20118;-75
2023/07/28 07:52:50;;;;;;;18.27;14.82;;;19.50;99.90;;;;;;4984075;28;20125;-76
2023/07/28 07:55:16;;;;;;;18.90;13.55;;;19.60;99.90;;;;;;4973330;28;20113;-76
2023/07/28 07:57:42;;;;;;;17.42;14.82;;;19.60;99.90;;;;;;4985926;28;20058;-76
2023/07/28 08:00:08;;;;;;;17.38;14.95;;;19.60;99.90;;;;;;4963183;28;20058;-74
2023/07/28 08:02:34;;;;;;;19.48;14.90;;;19.60;99.90;;;;;;4983687;28;20038;-74
2023/07/28 08:05:00;;;;;;;17.48;14.77;;;19.60;99.90;;;;;;4974177;28;20038;-74
2023/07/28 08:07:26;;;;;;;16.17;14.55;;;19.60;99.90;;;;;;4985277;28;20042;-74
2023/07/28 08:09:52;;;;;;;18.52;14.25;;;19.70;99.90;;;;;;4965271;28;20052;-74
2023/07/28 08:12:18;;;;;;;16.60;14.65;;;19.70;99.90;;;;;;4989814;28;20474;-74
2023/07/28 08:14:45;;;;;;;21.35;14.60;;;19.70;99.90;;;;;;4972311;28;20125;-74
2023/07/28 08:17:12;;;;;;;18.08;14.18;;;19.70;99.90;;;;;;4984977;28;20046;-74
2023/07/28 08:19:37;;;;;;;16.63;13.30;;;19.80;99.90;;;;;;4962920;28;20054;-74
2023/07/28 08:22:03;;;;;;;17.10;13.75;;;19.80;99.90;;;;;;4990043;28;20101;-73
2023/07/28 08:24:29;;;;;;;15.70;12.43;;;19.80;99.90;;;;;;4975118;28;20054;-74
2023/07/28 08:26:55;;;;;;;16.52;12.18;;;19.90;99.90;;;;;;4987756;28;20050;-71
2023/07/28 08:29:21;;;;;;;18.55;12.65;;;19.90;99.90;;;;;;4971804;28;20043;-70
2023/07/28 08:31:46;;;;;;;14.90;11.32;;;20.00;99.90;;;;;;4961894;28;20042;-72
2023/07/28 08:34:12;;;;;;;15.88;11.07;;;20.10;99.90;;;;;;4977805;28;20399;-72
2023/07/28 08:36:38;;;;;;;16.73;10.38;;;20.30;99.90;;;;;;4982043;28;20050;-88
2023/07/28 08:39:09;;;;;;;13.48;9.77;;;20.40;99.90;;;;;;4982651;28;20038;-86
2023/07/28 08:41:35;;;;;;;14.35;10.55;;;20.50;99.90;;;;;;4987465;28;20042;-88
2023/07/28 08:44:02;;;;;;;13.45;10.07;;;20.50;99.90;;;;;;4969380;28;20061;-87
2023/07/28 08:46:28;;;;;;;12.13;9.70;;;20.50;99.90;;;;;;4984528;28;20060;-84
2023/07/28 08:48:54;;;;;;;14.65;9.55;;;20.50;99.90;;;;;;4978947;28;20086;-85
2023/07/28 08:51:23;;;;;;;15.65;9.90;;;20.50;99.90;;;;;;4970844;28;20077;-81
2023/07/28 08:53:49;;;;;;;12.70;8.68;;;20.60;99.90;;;;;;4969850;28;20050;-86
2023/07/28 08:56:15;;;;;;;10.35;8.85;;;20.60;99.90;;;;;;4979413;28;20467;-88
2023/07/28 08:58:40;;;;;;;11.88;8.52;;;20.60;99.90;;;;;;4982396;28;20055;-83
2023/07/28 09:01:06;;;;;;;12.50;8.15;;;20.70;99.90;;;;;;4964804;28;20137;-83
2023/07/28 09:03:33;;;;;;;15.15;8.98;;;20.80;99.90;;;;;;4971022;28;20034;-81
2023/07/28 09:06:01;;;;;;;15.40;9.23;;;20.90;99.90;;;;;;4968249;28;20097;-84
2023/07/28 09:08:27;;;;;;;12.15;8.38;;;21.00;99.90;;;;;;4982097;28;20370;-80
2023/07/28 09:10:54;;;;;;;15.10;9.80;;;21.00;99.90;;;;;;4977371;28;20437;-80
2023/07/28 09:13:20;;;;;;;14.52;10.15;;;21.10;99.90;;;;;;4954312;28;20054;-80
2023/07/28 09:15:46;;;;;;;13.88;8.98;;;21.20;99.90;;;;;;4953287;28;20055;-80
2023/07/28 09:18:16;;;;;;;11.63;9.10;;;21.30;99.90;;;;;;4965238;28;20490;-79
2023/07/28 09:20:42;;;;;;;12.20;8.95;;;21.50;99.90;;;;;;4976062;28;20047;-79
2023/07/28 09:23:09;;;;;;;11.37;8.40;;;21.60;99.90;;;;;;4969981;28;20050;-80
2023/07/28 09:25:36;;;;;;;14.07;8.60;;;21.60;99.90;;;;;;4968351;28;20046;-78
2023/07/28 09:28:02;;;;;;;15.93;8.98;;;21.60;99.90;;;;;;4970047;28;20058;-78
2023/07/28 09:30:49;;;;;;;13.73;8.50;;;21.60;99.90;;;;;;4981584;28;20046;-86
2023/07/28 09:33:32;;;;;;;14.52;8.55;;;21.70;99.90;;;;;;4965414;28;20101;-89
2023/07/28 09:36:10;;;;;;;10.80;8.55;;;21.80;99.90;;;;;;4981292;28;20047;-88
2023/07/28 09:38:41;;;;;;;11.45;9.02;;;21.90;99.90;;;;;;4978922;28;20050;-86
2023/07/28 09:41:10;;;;;;;14.15;8.73;;;21.90;99.90;;;;;;4974970;28;20082;-86
2023/07/28 09:43:40;;;;;;;13.75;8.57;;;22.00;99.90;;;;;;4983742;28;20061;-89
2023/07/28 09:46:08;;;;;;;13.80;9.15;;;22.00;99.90;;;;;;4984818;28;20065;-88
2023/07/28 09:48:34;;;;;;;12.60;8.65;;;21.90;99.90;;;;;;4964122;28;20409;-86
2023/07/28 09:51:12;;;;;;;14.05;9.02;;;21.90;99.90;;;;;;4971877;28;20047;-79
2023/07/28 09:53:44;;;;;;;13.75;9.15;;;21.90;99.90;;;;;;4980246;28;20491;-80
2023/07/28 09:56:14;;;;;;;12.88;8.93;;;22.00;99.90;;;;;;4979656;28;20045;-80
2023/07/28 09:58:44;;;;;;;12.60;8.75;;;22.00;99.90;;;;;;4969046;28;20069;-86
2023/07/28 10:01:10;;;;;;;12.40;8.52;;;22.10;99.90;;;;;;4979147;28;20529;-80
2023/07/28 10:03:37;;;;;;;14.88;9.10;;;22.00;99.90;;;;;;4975618;28;20303;-80
2023/07/28 10:06:03;;;;;;;12.50;9.48;;;22.00;99.90;;;;;;4990435;28;20038;-79
2023/07/28 10:08:29;;;;;;;13.60;9.38;;;21.90;99.90;;;;;;4971901;28;20047;-82
2023/07/28 10:10:55;;;;;;;12.77;8.67;;;21.80;99.90;;;;;;4969274;28;20050;-87
2023/07/28 10:13:22;;;;;;;13.82;8.65;;;21.80;99.90;;;;;;4985823;28;20414;-86
2023/07/28 10:15:48;;;;;;;10.07;8.20;;;21.80;99.90;;;;;;4963040;28;20062;-86
2023/07/28 10:18:14;;;;;;;10.90;8.05;;;21.80;99.90;;;;;;4973318;28;20070;-83
2023/07/28 10:20:43;;;;;;;11.60;8.13;;;21.90;99.90;;;;;;4983512;28;20065;-73
2023/07/28 10:23:13;;;;;;;9.85;7.32;;;22.00;99.90;;;;;;4967344;28;20050;-83
2023/07/28 10:25:40;;;;;;;11.80;7.90;;;22.10;99.90;;;;;;4982303;28;20046;-86
2023/07/28 10:28:06;;;;;;;;;;;22.10;99.90;;;;;;4968728;28;20057;-78
2023/07/28 10:30:38;;;;;;;10.93;7.45;;;22.20;99.90;;;;;;4960066;28;19932;-77
2023/07/28 10:33:04;;;;;;;11.75;7.95;;;22.40;99.90;;;;;;4974665;28;20054;-81
2023/07/28 10:35:31;;;;;;;11.25;8.15;;;22.50;99.90;;;;;;4983737;28;20054;-80
2023/07/28 10:37:58;;;;;;;12.27;8.48;;;22.40;99.90;;;;;;4981403;28;20051;-77
2023/07/28 10:40:35;;;;;;;10.95;8.02;;;22.40;99.90;;;;;;4984262;28;20569;-74
2023/07/28 10:43:02;;;;;;;8.63;6.32;;;22.40;99.90;;;;;;4973225;28;20042;-79
2023/07/28 10:45:31;;;;;;;11.60;8.45;;;22.60;99.90;;;;;;4979221;28;20053;-81
2023/07/28 10:47:59;;;;;;;11.75;7.50;;;22.70;99.90;;;;;;4982889;28;20050;-83
2023/07/28 10:50:28;;;;;;;11.60;7.65;;;22.80;99.90;;;;;;4971246;28;20408;-81
2023/07/28 10:52:54;;;;;;;9.70;6.35;;;22.80;99.90;;;;;;4967120;28;20085;-77
2023/07/28 10:55:23;;;;;;;8.98;6.95;;;22.90;99.90;;;;;;4976327;28;20054;-78
2023/07/28 10:57:51;;;;;;;9.60;6.53;;;22.80;99.90;;;;;;4970691;28;20118;-82
2023/07/28 11:00:19;;;;;;;8.95;6.95;;;22.70;99.90;;;;;;4986407;28;20501;-81
2023/07/28 11:02:49;;;;;;;8.05;6.72;;;22.70;99.90;;;;;;4962424;28;20054;-83
2023/07/28 11:05:33;;;;;;;8.43;6.97;;;22.60;99.90;;;;;;4971494;28;20129;-84
2023/07/28 11:08:02;;;;;;;7.97;6.05;;;22.50;99.90;;;;;;4987003;28;20060;-79
2023/07/28 11:10:30;;;;;;;7.82;6.20;;;22.50;99.90;;;;;;4979751;28;20046;-85
2023/07/28 11:12:58;;;;;;;7.03;5.38;;;22.60;99.90;;;;;;4972104;28;20387;-83
2023/07/28 11:15:25;;;;;;;8.10;4.72;;;22.60;99.90;;;;;;4981115;28;20050;-79
2023/07/28 11:17:51;;;;;;;4.72;4.10;;;22.60;99.90;;;;;;4981448;28;20561;-80
2023/07/28 11:20:18;;;;;;;4.45;3.40;;;22.60;99.90;;;;;;4986625;28;20129;-85
2023/07/28 11:22:46;;;;;;;5.25;3.67;;;22.60;99.90;;;;;;4984126;28;20057;-77
2023/07/28 11:25:12;;;;;;;12.20;5.88;;;22.80;99.90;;;;;;4977521;28;20043;-80
2023/07/28 11:27:39;;;;;;;6.37;4.20;;;22.90;99.90;;;;;;4972334;28;20035;-80
2023/07/28 11:30:07;;;;;;;7.07;4.40;;;23.00;99.90;;;;;;4975317;28;20652;-81
2023/07/28 11:32:37;;;;;;;4.50;4.10;;;23.20;99.90;;;;;;4979527;28;20053;-81
2023/07/28 11:35:08;;;;;;;4.97;4.40;;;23.20;99.90;;;;;;4983213;28;20050;-84
2023/07/28 11:37:35;;;;;;;5.82;4.18;;;23.20;99.90;;;;;;4973811;28;20466;-83
2023/07/28 11:40:10;;;;;;;6.03;3.90;;;23.10;99.90;;;;;;4983398;28;21625;-81
2023/07/28 11:42:53;;;;;;;6.13;5.32;;;23.10;99.90;;;;;;4984240;28;20185;-81
2023/07/28 11:45:22;;;;;;;7.03;4.82;;;23.20;99.90;;;;;;4972745;28;20053;-78
2023/07/28 11:48:07;;;;;;;7.72;6.07;;;23.30;99.90;;;;;;4961201;28;20043;-75
2023/07/28 11:50:41;;;;;;;7.20;6.40;;;23.50;99.90;;;;;;4967734;28;20065;-82
2023/07/28 11:53:11;;;;;;;6.90;5.88;;;23.40;99.90;;;;;;4962523;28;20540;-84
2023/07/28 11:55:38;;;;;;;5.65;3.97;;;23.30;99.90;;;;;;4966161;28;20057;-82
2023/07/28 11:58:05;;;;;;;5.63;3.80;;;23.20;99.90;;;;;;4977717;28;20062;-80
2023/07/28 12:00:35;;;;;;;6.18;4.60;;;23.10;99.90;;;;;;4970456;28;20050;-80
2023/07/28 12:03:05;;;;;;;5.38;4.63;;;23.00;99.90;;;;;;4971506;28;20038;-81
2023/07/28 12:05:32;;;;;;;4.88;4.38;;;23.00;99.90;;;;;;4990393;28;20084;-83
2023/07/28 12:07:58;;;;;;;4.00;3.30;;;22.90;99.90;;;;;;4988014;28;20109;-79
2023/07/28 12:10:24;;;;;;;2.83;2.35;;;22.80;99.90;;;;;;4986201;28;20038;-80
2023/07/28 12:12:50;;;;;;;4.53;4.10;;;22.70;99.90;;;;;;4980517;28;20126;-82
2023/07/28 12:15:22;;;;;;;4.65;4.25;;;22.60;99.90;;;;;;4989202;28;20042;-80
2023/07/28 12:18:19;;;;;;;5.50;5.00;;;22.60;99.90;;;;;;4984004;28;20053;-81
2023/07/28 12:20:46;;;;;;;6.32;5.38;;;22.60;99.90;;;;;;4968371;28;20055;-81
2023/07/28 12:23:12;;;;;;;;;;;22.60;99.90;;;;;;4981124;28;20049;-78
2023/07/28 12:25:39;;;;;;;8.68;6.55;;;22.60;99.90;;;;;;4984409;28;19952;-78
2023/07/28 12:28:05;;;;;;;8.05;6.65;;;22.90;99.90;;;;;;4985955;28;20469;-78
2023/07/28 12:30:32;;;;;;;8.05;7.25;;;23.10;99.90;;;;;;4984580;28;20109;-80
2023/07/28 12:32:58;;;;;;;7.30;6.60;;;23.30;99.90;;;;;;4984308;28;20039;-84